sensor_id;sensor_type;location;lat;lon;timestamp;P1;P2;P0
43280;PMS5003;62175;49.416;8.690;2022-07-18T01:11:39;2;2;
43280;PMS5003;62175;49.416;8.690;2022-07-18T01:14:07;3;3;
43280;PMS5003;62175;49.416;8.690;2022-07-18T01:21:46;2;2;
43280;PMS5003;62175;49.416;8.690;2022-07-18T01:24:15;2;2;
43280;PMS5003;62175;49.416;8.690;2022-07-18T01:26:43;3;2;
43280;PMS5003;62175;49.416;8.690;2022-07-18T01:29:11;3;3;
43280;PMS5003;62175;49.416;8.690;2022-07-18T01:31:40;3;3;
43280;PMS5003;62175;49.416;8.690;2022-07-18T01:38:06;3;2;
43280;PMS5003;62175;49.416;8.690;2022-07-18T01:43:00;3;3;
43280;PMS5003;62175;49.416;8.690;2022-07-18T01:45:55;3;2;
43280;PMS5003;62175;49.416;8.690;2022-07-18T01:48:23;2;2;
43280;PMS5003;62175;49.416;8.690;2022-07-18T01:50:52;2;2;
43280;PMS5003;62175;49.416;8.690;2022-07-18T01:53:21;1;1;
43280;PMS5003;62175;49.416;8.690;2022-07-18T01:58:43;3;3;
43280;PMS5003;62175;49.416;8.690;2022-07-18T02:01:38;2;2;
43280;PMS5003;62175;49.416;8.690;2022-07-18T02:04:06;2;2;
43280;PMS5003;62175;49.416;8.690;2022-07-18T02:06:34;3;2;
43280;PMS5003;62175;49.416;8.690;2022-07-18T02:09:02;2;2;
43280;PMS5003;62175;49.416;8.690;2022-07-18T02:11:30;3;3;
43280;PMS5003;62175;49.416;8.690;2022-07-18T02:13:58;2;2;
43280;PMS5003;62175;49.416;8.690;2022-07-18T02:16:26;3;3;
43280;PMS5003;62175;49.416;8.690;2022-07-18T02:18:54;1;1;
43280;PMS5003;62175;49.416;8.690;2022-07-18T02:21:22;2;2;
43280;PMS5003;62175;49.416;8.690;2022-07-18T02:23:50;4;3;
43280;PMS5003;62175;49.416;8.690;2022-07-18T02:26:18;2;2;
43280;PMS5003;62175;49.416;8.690;2022-07-18T02:28:46;3;3;
43280;PMS5003;62175;49.416;8.690;2022-07-18T02:31:14;3;3;
43280;PMS5003;62175;49.416;8.690;2022-07-18T02:33:41;3;3;
43280;PMS5003;62175;49.416;8.690;2022-07-18T02:36:09;2;2;
43280;PMS5003;62175;49.416;8.690;2022-07-18T02:39:05;3;2;
43280;PMS5003;62175;49.416;8.690;2022-07-18T02:41:34;3;2;
43280;PMS5003;62175;49.416;8.690;2022-07-18T02:44:02;2;2;
43280;PMS5003;62175;49.416;8.690;2022-07-18T02:46:31;2;2;
43280;PMS5003;62175;49.416;8.690;2022-07-18T04:17:05;4;4;
43280;PMS5003;62175;49.416;8.690;2022-07-18T04:19:33;3;3;
43280;PMS5003;62175;49.416;8.690;2022-07-18T04:22:01;3;3;
43280;PMS5003;62175;49.416;8.690;2022-07-18T04:24:29;2;2;
43280;PMS5003;62175;49.416;8.690;2022-07-18T04:26:56;4;2;
43280;PMS5003;62175;49.416;8.690;2022-07-18T04:29:22;4;4;
43280;PMS5003;62175;49.416;8.690;2022-07-18T04:35:06;3;3;
43280;PMS5003;62175;49.416;8.690;2022-07-18T04:37:35;4;3;
43280;PMS5003;62175;49.416;8.690;2022-07-18T04:40:02;2;2;
43280;PMS5003;62175;49.416;8.690;2022-07-18T05:49:32;7;5;
43280;PMS5003;62175;49.416;8.690;2022-07-18T05:51:59;4;4;
43280;PMS5003;62175;49.416;8.690;2022-07-18T05:54:29;5;5;
43280;PMS5003;62175;49.416;8.690;2022-07-18T05:56:57;6;6;
43280;PMS5003;62175;49.416;8.690;2022-07-18T05:59:24;6;5;
43280;PMS5003;62175;49.416;8.690;2022-07-18T06:01:51;4;4;
43280;PMS5003;62175;49.416;8.690;2022-07-18T06:04:18;5;5;
43280;PMS5003;62175;49.416;8.690;2022-07-18T06:06:46;4;4;
43280;PMS5003;62175;49.416;8.690;2022-07-18T06:09:13;7;5;
43280;PMS5003;62175;49.416;8.690;2022-07-18T06:11:40;5;4;
43280;PMS5003;62175;49.416;8.690;2022-07-18T06:14:09;5;4;
43280;PMS5003;62175;49.416;8.690;2022-07-18T06:16:37;5;5;
43280;PMS5003;62175;49.416;8.690;2022-07-18T06:19:06;4;4;
43280;PMS5003;62175;49.416;8.690;2022-07-18T06:21:34;5;5;
43280;PMS5003;62175;49.416;8.690;2022-07-18T06:24:03;4;3;
43280;PMS5003;62175;49.416;8.690;2022-07-18T06:41:52;3;2;
43280;PMS5003;62175;49.416;8.690;2022-07-18T06:44:41;5;5;
43280;PMS5003;62175;49.416;8.690;2022-07-18T06:58:51;6;6;
43280;PMS5003;62175;49.416;8.690;2022-07-18T07:01:26;5;4;
43280;PMS5003;62175;49.416;8.690;2022-07-18T07:06:55;5;4;
43280;PMS5003;62175;49.416;8.690;2022-07-18T07:21:01;4;4;
43280;PMS5003;62175;49.416;8.690;2022-07-18T07:36:48;5;5;
43280;PMS5003;62175;49.416;8.690;2022-07-18T07:39:16;6;5;
43280;PMS5003;62175;49.416;8.690;2022-07-18T07:41:45;8;8;
43280;PMS5003;62175;49.416;8.690;2022-07-18T07:44:13;6;5;
43280;PMS5003;62175;49.416;8.690;2022-07-18T07:46:41;6;6;
43280;PMS5003;62175;49.416;8.690;2022-07-18T07:49:08;3;2;
43280;PMS5003;62175;49.416;8.690;2022-07-18T07:51:35;7;6;
43280;PMS5003;62175;49.416;8.690;2022-07-18T07:55:11;5;4;
43280;PMS5003;62175;49.416;8.690;2022-07-18T07:57:38;6;5;
43280;PMS5003;62175;49.416;8.690;2022-07-18T08:00:07;7;6;
43280;PMS5003;62175;49.416;8.690;2022-07-18T08:02:35;6;6;
43280;PMS5003;62175;49.416;8.690;2022-07-18T08:05:03;7;7;
43280;PMS5003;62175;49.416;8.690;2022-07-18T08:07:32;8;8;
43280;PMS5003;62175;49.416;8.690;2022-07-18T08:10:01;6;6;
43280;PMS5003;62175;49.416;8.690;2022-07-18T08:20:11;8;7;
43280;PMS5003;62175;49.416;8.690;2022-07-18T08:22:51;7;7;
43280;PMS5003;62175;49.416;8.690;2022-07-18T08:25:21;5;5;
43280;PMS5003;62175;49.416;8.690;2022-07-18T08:29:43;7;7;
43280;PMS5003;62175;49.416;8.690;2022-07-18T08:32:12;8;7;
43280;PMS5003;62175;49.416;8.690;2022-07-18T08:45:49;6;6;
43280;PMS5003;62175;49.416;8.690;2022-07-18T08:48:21;6;5;
43280;PMS5003;62175;49.416;8.690;2022-07-18T08:51:04;6;5;
43280;PMS5003;62175;49.416;8.690;2022-07-18T08:53:32;5;4;
43280;PMS5003;62175;49.416;8.690;2022-07-18T08:58:15;8;7;
43280;PMS5003;62175;49.416;8.690;2022-07-18T09:01:23;8;7;
43280;PMS5003;62175;49.416;8.690;2022-07-18T09:03:53;7;7;
43280;PMS5003;62175;49.416;8.690;2022-07-18T09:07:25;6;5;
43280;PMS5003;62175;49.416;8.690;2022-07-18T09:09:54;5;5;
43280;PMS5003;62175;49.416;8.690;2022-07-18T09:12:23;4;4;
43280;PMS5003;62175;49.416;8.690;2022-07-18T09:14:50;5;4;
43280;PMS5003;62175;49.416;8.690;2022-07-18T09:17:19;4;4;
43280;PMS5003;62175;49.416;8.690;2022-07-18T09:19:57;3;3;
43280;PMS5003;62175;49.416;8.690;2022-07-18T09:22:27;5;3;
43280;PMS5003;62175;49.416;8.690;2022-07-18T09:40:16;2;2;
43280;PMS5003;62175;49.416;8.690;2022-07-18T09:45:53;2;2;
43280;PMS5003;62175;49.416;8.690;2022-07-18T09:55:38;2;2;
43280;PMS5003;62175;49.416;8.690;2022-07-18T09:58:11;2;2;
43280;PMS5003;62175;49.416;8.690;2022-07-18T10:04:57;1;1;
43280;PMS5003;62175;49.416;8.690;2022-07-18T10:07:33;2;2;
43280;PMS5003;62175;49.416;8.690;2022-07-18T10:10:54;2;2;
43280;PMS5003;62175;49.416;8.690;2022-07-18T10:13:23;2;1;
43280;PMS5003;62175;49.416;8.690;2022-07-18T10:19:46;3;3;
43280;PMS5003;62175;49.416;8.690;2022-07-18T10:27:11;3;3;
43280;PMS5003;62175;49.416;8.690;2022-07-18T10:29:39;2;2;
43280;PMS5003;62175;49.416;8.690;2022-07-18T10:32:34;3;3;
43280;PMS5003;62175;49.416;8.690;2022-07-18T10:35:04;5;5;
43280;PMS5003;62175;49.416;8.690;2022-07-18T10:37:32;6;6;
43280;PMS5003;62175;49.416;8.690;2022-07-18T10:40:12;7;7;
43280;PMS5003;62175;49.416;8.690;2022-07-18T10:50:49;9;8;
43280;PMS5003;62175;49.416;8.690;2022-07-18T10:55:31;8;8;
43280;PMS5003;62175;49.416;8.690;2022-07-18T11:03:03;4;4;
43280;PMS5003;62175;49.416;8.690;2022-07-18T22:10:43;9;9;
43280;PMS5003;62175;49.416;8.690;2022-07-18T22:18:45;6;6;
43280;PMS5003;62175;49.416;8.690;2022-07-18T22:22:15;9;7;
43280;PMS5003;62175;49.416;8.690;2022-07-18T22:24:43;6;5;
43280;PMS5003;62175;49.416;8.690;2022-07-18T22:27:11;7;7;
43280;PMS5003;62175;49.416;8.690;2022-07-18T22:29:39;8;8;
43280;PMS5003;62175;49.416;8.690;2022-07-18T22:32:06;18;17;
43280;PMS5003;62175;49.416;8.690;2022-07-18T22:34:33;17;17;
43280;PMS5003;62175;49.416;8.690;2022-07-18T22:37:00;16;16;
43280;PMS5003;62175;49.416;8.690;2022-07-18T22:39:27;16;14;
43280;PMS5003;62175;49.416;8.690;2022-07-18T22:41:54;14;14;
43280;PMS5003;62175;49.416;8.690;2022-07-18T22:44:22;10;9;
43280;PMS5003;62175;49.416;8.690;2022-07-18T22:46:49;9;9;
43280;PMS5003;62175;49.416;8.690;2022-07-18T22:49:16;13;12;
43280;PMS5003;62175;49.416;8.690;2022-07-18T22:51:43;13;13;
43280;PMS5003;62175;49.416;8.690;2022-07-18T22:54:10;11;11;
43280;PMS5003;62175;49.416;8.690;2022-07-18T22:56:38;15;14;
43280;PMS5003;62175;49.416;8.690;2022-07-18T22:59:04;13;13;
43280;PMS5003;62175;49.416;8.690;2022-07-18T23:01:31;16;16;
43280;PMS5003;62175;49.416;8.690;2022-07-18T23:03:58;18;18;
43280;PMS5003;62175;49.416;8.690;2022-07-18T23:06:25;20;20;
43280;PMS5003;62175;49.416;8.690;2022-07-18T23:08:52;17;17;
43280;PMS5003;62175;49.416;8.690;2022-07-18T23:11:20;14;14;
43280;PMS5003;62175;49.416;8.690;2022-07-18T23:13:48;16;16;
43280;PMS5003;62175;49.416;8.690;2022-07-18T23:16:15;16;16;
43280;PMS5003;62175;49.416;8.690;2022-07-18T23:18:42;16;16;
43280;PMS5003;62175;49.416;8.690;2022-07-18T23:21:09;15;15;
43280;PMS5003;62175;49.416;8.690;2022-07-18T23:35:10;21;20;
43280;PMS5003;62175;49.416;8.690;2022-07-18T23:38:46;18;18;
43280;PMS5003;62175;49.416;8.690;2022-07-18T23:44:54;30;28;
43280;PMS5003;62175;49.416;8.690;2022-07-18T23:47:21;31;31;
43280;PMS5003;62175;49.416;8.690;2022-07-18T23:56:24;24;24;
